Time;durP1;ratioP1;P1;durP2;ratioP2;P2;SDS_P1;SDS_P2;PMS_P1;PMS_P2;Temp;Humidity;BMP_temperature;BMP_pressure;BME280_temperature;BME280_humidity;BME280_pressure;Samples;Min_cycle;Max_cycle;Signal;HPM_P1;HPM_P2
2022/10/11 00:02:14;;;;;;;31.95;6.15;;;7.40;99.90;;;;;;5041160;28;20471;-67
2022/10/11 00:04:40;;;;;;;25.90;6.38;;;7.30;99.90;;;;;;5040176;28;20110;-67
2022/10/11 00:07:06;;;;;;;32.95;5.95;;;7.40;99.90;;;;;;5068044;28;20122;-67
2022/10/11 00:09:31;;;;;;;32.10;6.00;;;7.30;99.90;;;;;;5070643;28;20038;-67
2022/10/11 00:11:57;;;;;;;22.67;5.40;;;7.40;99.90;;;;;;5037289;28;20045;-67
2022/10/11 00:14:24;;;;;;;29.85;6.07;;;7.40;99.90;;;;;;5039960;28;20037;-67
2022/10/11 00:16:51;;;;;;;27.90;5.65;;;7.40;99.90;;;;;;5036560;28;20033;-67
2022/10/11 00:19:16;;;;;;;31.92;5.97;;;7.50;99.90;;;;;;5034526;28;20045;-68
2022/10/11 00:21:42;;;;;;;27.40;5.50;;;7.30;99.90;;;;;;5036181;28;20029;-68
2022/10/11 00:24:10;;;;;;;23.40;5.82;;;7.30;99.90;;;;;;5068428;28;20083;-68
2022/10/11 00:26:35;;;;;;;28.33;5.97;;;7.30;99.90;;;;;;5035108;28;20048;-68
2022/10/11 00:29:01;;;;;;;31.30;6.35;;;7.40;99.90;;;;;;5040087;28;20087;-67
2022/10/11 00:31:27;;;;;;;34.70;6.63;;;7.30;99.90;;;;;;5070562;28;20132;-67
2022/10/11 00:33:53;;;;;;;27.58;5.18;;;7.30;99.90;;;;;;5039614;28;20076;-67
2022/10/11 00:36:19;;;;;;;29.10;5.43;;;7.40;99.90;;;;;;5038441;28;20033;-67
2022/10/11 00:38:45;;;;;;;23.65;5.20;;;7.30;99.90;;;;;;5040387;28;20037;-67
2022/10/11 00:41:12;;;;;;;25.80;5.22;;;7.30;99.90;;;;;;5040622;28;20033;-67
2022/10/11 00:43:37;;;;;;;34.58;5.85;;;7.20;99.90;;;;;;5035362;28;20033;-67
2022/10/11 00:46:23;;;;;;;28.92;6.53;;;7.10;99.90;;;;;;5038345;28;20379;-67
2022/10/11 00:48:55;;;;;;;30.50;5.63;;;7.10;99.90;;;;;;5038737;28;20068;-67
2022/10/11 00:51:32;;;;;;;30.65;6.22;;;7.10;99.90;;;;;;5038494;28;20144;-67
2022/10/11 00:54:00;;;;;;;28.15;5.53;;;7.30;99.90;;;;;;5032734;28;20048;-67
2022/10/11 00:56:31;;;;;;;28.23;5.47;;;7.30;99.90;;;;;;5033253;28;20048;-66
2022/10/11 00:58:59;;;;;;;29.33;5.40;;;7.20;99.90;;;;;;5069889;28;20092;-67
2022/10/11 01:01:24;;;;;;;30.70;5.68;;;7.30;99.90;;;;;;5036057;28;20045;-67
2022/10/11 01:03:50;;;;;;;21.80;4.07;;;7.40;99.90;;;;;;5035663;28;20500;-67
2022/10/11 01:06:16;;;;;;;14.00;4.00;;;7.40;99.90;;;;;;5037323;28;20133;-67
2022/10/11 01:08:42;;;;;;;15.98;3.90;;;7.30;99.90;;;;;;5070560;28;20033;-67
2022/10/11 01:11:16;;;;;;;16.13;3.72;;;7.30;99.90;;;;;;5039445;28;20029;-67
2022/10/11 01:13:47;;;;;;;23.33;4.40;;;7.10;99.90;;;;;;5042224;28;20052;-67
2022/10/11 01:16:20;;;;;;;21.90;4.78;;;7.10;99.90;;;;;;5064989;28;20045;-67
2022/10/11 01:19:07;;;;;;;26.90;5.80;;;7.00;99.90;;;;;;5071379;28;20116;-67
2022/10/11 01:21:50;;;;;;;26.63;5.63;;;7.10;99.90;;;;;;5033569;28;20064;-67
2022/10/11 01:24:18;;;;;;;38.80;6.47;;;7.00;99.90;;;;;;5036434;28;20033;-67
2022/10/11 01:27:00;;;;;;;32.05;6.28;;;7.10;99.90;;;;;;5032285;28;20049;-67
2022/10/11 01:30:04;;;;;;;32.88;6.63;;;7.10;99.90;;;;;;5034903;28;20049;-66
2022/10/11 01:32:42;;;;;;;30.23;6.28;;;7.00;99.90;;;;;;5068276;28;20057;-67
2022/10/11 01:35:14;;;;;;;30.08;5.88;;;7.00;99.90;;;;;;5064690;28;20120;-66
2022/10/11 01:37:43;;;;;;;;;;;7.10;99.90;;;;;;5040892;28;20072;-66
2022/10/11 01:40:42;;;;;;;24.63;5.65;;;7.10;99.90;;;;;;5032570;28;20418;-67
2022/10/11 01:43:09;;;;;;;10.40;3.55;;;7.00;99.90;;;;;;5021751;28;20381;-67
2022/10/11 01:45:36;;;;;;;19.85;4.55;;;7.00;99.90;;;;;;5037626;28;20456;-66
2022/10/11 01:48:10;;;;;;;32.08;6.10;;;6.90;99.90;;;;;;5040995;28;20044;-67
2022/10/11 01:50:46;;;;;;;27.05;6.00;;;6.90;99.90;;;;;;5037315;28;20044;-66
2022/10/11 01:53:36;;;;;;;29.42;5.93;;;6.80;99.90;;;;;;5041102;28;20056;-67
2022/10/11 01:56:15;;;;;;;25.33;6.28;;;7.00;99.90;;;;;;5034985;28;20045;-66
2022/10/11 01:59:01;;;;;;;27.77;6.30;;;7.00;99.90;;;;;;5034278;28;20104;-66
2022/10/11 02:01:39;;;;;;;23.55;5.22;;;7.10;99.90;;;;;;5036927;28;20139;-66
2022/10/11 02:04:21;;;;;;;25.50;6.00;;;7.20;99.90;;;;;;5035528;28;20094;-67
2022/10/11 02:07:03;;;;;;;32.95;6.10;;;7.20;99.90;;;;;;5035818;28;20052;-67
2022/10/11 02:09:52;;;;;;;23.05;5.18;;;7.10;99.90;;;;;;5043616;28;20052;-66
2022/10/11 02:12:26;;;;;;;31.25;5.75;;;7.30;99.90;;;;;;5031584;28;20567;-66
2022/10/11 02:14:55;;;;;;;20.45;4.75;;;7.30;99.90;;;;;;5031463;28;20041;-66
2022/10/11 02:17:29;;;;;;;20.38;4.78;;;7.20;99.90;;;;;;5036083;28;20040;-66
2022/10/11 02:19:58;;;;;;;9.05;2.35;;;7.10;99.90;;;;;;5051273;28;20508;-66
2022/10/11 02:22:34;;;;;;;12.15;2.80;;;7.10;99.90;;;;;;5037777;28;20097;-67
2022/10/11 02:25:05;;;;;;;9.00;2.38;;;6.90;99.90;;;;;;5071213;28;20056;-66
2022/10/11 02:27:35;;;;;;;11.00;2.33;;;6.90;99.90;;;;;;5043457;28;20044;-66
2022/10/11 02:30:04;;;;;;;9.55;2.58;;;6.60;99.90;;;;;;5038984;28;20199;-66
2022/10/11 02:32:30;;;;;;;9.60;1.90;;;6.60;99.90;;;;;;5036752;28;20108;-67
2022/10/11 02:34:59;;;;;;;3.78;1.40;;;6.60;99.90;;;;;;5041932;28;20109;-66
2022/10/11 02:37:42;;;;;;;2.17;1.00;;;6.40;99.90;;;;;;5041910;28;20049;-66
2022/10/11 02:40:21;;;;;;;2.72;1.10;;;6.50;99.90;;;;;;5032664;28;20052;-66
2022/10/11 02:43:00;;;;;;;2.42;1.25;;;6.30;99.90;;;;;;5034316;28;20091;-66
2022/10/11 02:45:45;;;;;;;3.75;1.45;;;6.20;99.90;;;;;;5033556;28;20037;-67
2022/10/11 02:48:11;;;;;;;4.03;1.50;;;6.10;99.90;;;;;;5043801;28;20041;-66
2022/10/11 02:50:42;;;;;;;3.60;1.50;;;6.10;99.90;;;;;;5042226;28;20041;-66
2022/10/11 02:53:07;;;;;;;4.75;1.50;;;6.00;99.90;;;;;;5042000;28;20042;-66
2022/10/11 02:55:33;;;;;;;7.47;0.95;;;5.90;99.90;;;;;;5042794;28;20404;-67
2022/10/11 02:57:59;;;;;;;2.15;0.80;;;5.80;99.90;;;;;;5036276;28;20041;-66
2022/10/11 03:00:25;;;;;;;1.20;0.68;;;5.70;99.90;;;;;;5075085;28;20488;-67
2022/10/11 03:02:50;;;;;;;2.08;0.98;;;5.60;99.90;;;;;;5041406;28;20037;-67
2022/10/11 03:05:16;;;;;;;4.60;1.27;;;5.50;99.90;;;;;;5036338;28;20041;-67
2022/10/11 03:07:42;;;;;;;5.70;1.27;;;5.50;99.90;;;;;;5040433;28;20045;-67
2022/10/11 03:10:08;;;;;;;6.40;1.50;;;5.50;99.90;;;;;;5040915;28;20044;-66
2022/10/11 03:12:33;;;;;;;9.35;1.92;;;5.40;99.90;;;;;;5070543;28;20076;-66
2022/10/11 03:14:59;;;;;;;4.82;1.85;;;5.50;99.90;;;;;;5036576;28;20037;-66
2022/10/11 03:17:26;;;;;;;3.97;1.55;;;5.50;99.90;;;;;;5037030;28;20044;-66
2022/10/11 03:19:52;;;;;;;3.63;0.80;;;5.40;99.90;;;;;;5034450;28;20033;-67
2022/10/11 03:22:17;;;;;;;6.10;1.23;;;5.40;99.90;;;;;;5041372;28;20404;-67
2022/10/11 03:24:43;;;;;;;3.95;1.40;;;5.30;99.90;;;;;;5035413;28;20128;-66
2022/10/11 03:27:08;;;;;;;10.18;2.05;;;5.10;99.90;;;;;;5037780;28;20064;-67
2022/10/11 03:29:34;;;;;;;3.45;1.10;;;5.00;99.90;;;;;;5037403;28;20037;-67
2022/10/11 03:32:00;;;;;;;1.05;0.75;;;5.00;99.90;;;;;;5035421;28;20374;-66
2022/10/11 03:34:25;;;;;;;1.30;0.93;;;4.90;99.90;;;;;;5041401;28;20048;-66
2022/10/11 03:36:51;;;;;;;2.45;0.70;;;4.90;99.90;;;;;;5037287;28;20038;-67
2022/10/11 03:39:16;;;;;;;1.63;1.08;;;4.90;99.90;;;;;;5035506;28;20032;-67
2022/10/11 03:41:42;;;;;;;1.75;1.00;;;4.90;99.90;;;;;;5068103;28;20029;-67
2022/10/11 03:44:08;;;;;;;1.73;1.00;;;4.80;99.90;;;;;;5066861;28;20124;-66
2022/10/11 03:46:33;;;;;;;2.78;1.20;;;4.90;99.90;;;;;;5069271;28;20048;-66
2022/10/11 03:48:59;;;;;;;3.88;1.33;;;4.90;99.90;;;;;;5039226;28;20045;-66
2022/10/11 03:51:25;;;;;;;5.18;1.52;;;5.00;99.90;;;;;;5038166;28;20395;-66
2022/10/11 03:53:50;;;;;;;3.47;1.63;;;4.90;99.90;;;;;;5039334;28;20120;-66
2022/10/11 03:56:16;;;;;;;3.78;1.50;;;4.90;99.90;;;;;;5026473;28;20036;-66
2022/10/11 03:58:41;;;;;;;3.42;1.40;;;5.00;99.90;;;;;;5066296;28;21096;-67
2022/10/11 04:01:07;;;;;;;3.83;1.30;;;4.90;99.90;;;;;;5037735;28;20056;-67
2022/10/11 04:03:33;;;;;;;3.55;1.58;;;4.90;99.90;;;;;;5034047;28;20033;-67
2022/10/11 04:05:59;;;;;;;4.57;1.50;;;4.90;99.90;;;;;;5037745;28;20047;-66
2022/10/11 04:08:24;;;;;;;3.50;1.25;;;4.90;99.90;;;;;;5072133;28;20033;-66
2022/10/11 04:10:50;;;;;;;4.15;1.80;;;4.90;99.90;;;;;;5069740;28;21312;-66
2022/10/11 04:13:16;;;;;;;5.65;1.60;;;4.90;99.90;;;;;;5038794;28;20071;-66
2022/10/11 04:15:42;;;;;;;4.07;1.50;;;4.90;99.90;;;;;;5039231;28;20039;-66
2022/10/11 04:18:08;;;;;;;4.00;1.50;;;5.00;99.90;;;;;;5066556;28;20029;-66
2022/10/11 04:20:34;;;;;;;2.72;1.40;;;4.90;99.90;;;;;;5039876;28;20053;-66
2022/10/11 04:23:00;;;;;;;2.97;1.75;;;4.90;99.90;;;;;;5066727;28;20406;-66
2022/10/11 04:25:25;;;;;;;2.90;1.60;;;4.80;99.90;;;;;;5034220;28;20082;-66
2022/10/11 04:27:51;;;;;;;5.55;2.03;;;4.80;99.90;;;;;;5034843;28;20095;-66
2022/10/11 04:30:17;;;;;;;6.22;2.00;;;4.90;99.90;;;;;;5066423;28;20036;-66
2022/10/11 04:32:43;;;;;;;2.40;1.27;;;4.80;99.90;;;;;;5035076;28;20045;-66
2022/10/11 04:35:09;;;;;;;1.83;1.15;;;4.80;99.90;;;;;;5030255;28;20044;-66
2022/10/11 04:37:35;;;;;;;3.63;1.38;;;4.80;99.90;;;;;;5032052;28;20067;-66
2022/10/11 04:40:01;;;;;;;3.33;1.20;;;4.70;99.90;;;;;;5040790;28;20123;-66
2022/10/11 04:42:26;;;;;;;4.15;1.42;;;4.70;99.90;;;;;;5041612;28;20041;-65
2022/10/11 04:44:52;;;;;;;3.67;1.38;;;4.70;99.90;;;;;;5038412;28;20056;-66
2022/10/11 04:47:18;;;;;;;2.58;1.45;;;4.70;99.90;;;;;;5043315;28;20506;-66
2022/10/11 04:49:43;;;;;;;4.22;2.35;;;4.80;99.90;;;;;;5039708;28;20102;-66
2022/10/11 04:52:09;;;;;;;6.55;2.00;;;4.70;99.90;;;;;;5039039;28;20115;-66
2022/10/11 04:54:34;;;;;;;5.93;1.98;;;4.70;99.90;;;;;;5040890;28;20359;-65
2022/10/11 04:57:00;;;;;;;7.55;2.35;;;4.80;99.90;;;;;;5074092;28;20040;-66
2022/10/11 04:59:25;;;;;;;8.65;2.42;;;4.80;99.90;;;;;;5077350;28;20045;-66
2022/10/11 05:01:51;;;;;;;7.03;1.85;;;4.90;99.90;;;;;;5068951;28;20116;-66
2022/10/11 05:04:17;;;;;;;9.00;2.15;;;4.90;99.90;;;;;;5039544;28;20051;-65
2022/10/11 05:06:42;;;;;;;9.15;2.70;;;5.00;99.90;;;;;;5072444;28;20136;-65
2022/10/11 05:09:08;;;;;;;4.70;2.20;;;5.00;99.90;;;;;;5046780;28;20040;-65
2022/10/11 05:11:33;;;;;;;10.68;2.40;;;5.00;99.90;;;;;;5073221;28;20045;-65
2022/10/11 05:13:59;;;;;;;8.55;2.50;;;5.00;99.90;;;;;;5041186;28;20048;-65
2022/10/11 05:16:25;;;;;;;12.48;3.40;;;5.00;99.90;;;;;;5072917;28;20044;-65
2022/10/11 05:18:50;;;;;;;15.13;3.63;;;5.10;99.90;;;;;;5065443;28;20511;-65
2022/10/11 05:21:24;;;;;;;11.90;3.35;;;5.10;99.90;;;;;;5032974;28;20316;-65
2022/10/11 05:23:52;;;;;;;11.65;3.97;;;5.20;99.90;;;;;;5051375;28;20041;-65
2022/10/11 05:26:18;;;;;;;10.60;3.42;;;5.20;99.90;;;;;;5032966;28;20096;-65
2022/10/11 05:28:45;;;;;;;11.18;4.78;;;5.20;99.90;;;;;;5033312;28;20476;-65
2022/10/11 05:31:10;;;;;;;13.05;4.00;;;5.20;99.90;;;;;;5034940;28;20043;-64
2022/10/11 05:33:36;;;;;;;19.17;3.95;;;5.20;99.90;;;;;;5034548;28;20040;-64
2022/10/11 05:36:02;;;;;;;15.52;4.05;;;5.20;99.90;;;;;;5065467;28;20033;-65
2022/10/11 05:38:27;;;;;;;26.77;4.43;;;5.20;99.90;;;;;;5032541;28;20045;-65
2022/10/11 05:40:53;;;;;;;6.22;2.95;;;5.10;99.90;;;;;;5065060;28;20083;-65
2022/10/11 05:43:19;;;;;;;5.85;2.78;;;5.10;99.90;;;;;;5034328;28;20373;-64
2022/10/11 05:45:45;;;;;;;8.02;3.00;;;5.10;99.90;;;;;;5051402;28;20119;-64
2022/10/11 05:48:11;;;;;;;8.35;2.72;;;5.00;99.90;;;;;;5040236;28;20036;-65
2022/10/11 05:50:37;;;;;;;5.93;2.50;;;5.00;99.90;;;;;;5072025;28;20041;-65
2022/10/11 05:53:04;;;;;;;8.00;2.72;;;5.00;99.90;;;;;;5039956;28;20488;-65
2022/10/11 05:55:33;;;;;;;4.80;2.60;;;4.90;99.90;;;;;;5037880;28;20029;-65
2022/10/11 05:57:59;;;;;;;14.90;5.18;;;5.00;99.90;;;;;;5034192;28;20040;-65
2022/10/11 06:00:24;;;;;;;20.38;3.55;;;5.00;99.90;;;;;;5072210;28;20102;-65
2022/10/11 06:02:51;;;;;;;36.10;3.95;;;5.10;99.90;;;;;;5036583;28;20042;-64
2022/10/11 06:05:16;;;;;;;11.98;3.88;;;5.10;99.90;;;;;;5038724;28;20480;-64
2022/10/11 06:07:42;;;;;;;8.55;3.10;;;4.90;99.90;;;;;;5044864;28;20033;-64
2022/10/11 06:10:08;;;;;;;9.82;2.90;;;4.90;99.90;;;;;;5048741;28;20069;-65
2022/10/11 06:12:34;;;;;;;10.13;3.13;;;4.80;99.90;;;;;;5028721;28;20122;-65
2022/10/11 06:15:00;;;;;;;7.78;2.97;;;4.70;99.90;;;;;;5039625;28;20040;-64
2022/10/11 06:17:25;;;;;;;3.75;2.35;;;4.80;99.90;;;;;;5050026;28;20040;-65
2022/10/11 06:19:51;;;;;;;5.75;2.50;;;4.80;99.90;;;;;;5030183;28;20046;-64
2022/10/11 06:22:17;;;;;;;4.65;2.58;;;4.80;99.90;;;;;;5029751;28;20041;-64
2022/10/11 06:24:43;;;;;;;8.75;3.13;;;4.80;99.90;;;;;;5043621;28;20051;-64
2022/10/11 06:27:09;;;;;;;6.93;2.95;;;4.90;99.90;;;;;;5031299;28;20490;-64
2022/10/11 06:29:35;;;;;;;5.97;3.20;;;4.80;99.90;;;;;;5047414;28;20048;-65
2022/10/11 06:32:01;;;;;;;6.25;2.78;;;4.90;99.90;;;;;;5051304;28;20123;-65
2022/10/11 06:34:27;;;;;;;9.50;2.85;;;4.90;99.90;;;;;;5051920;28;20124;-64
2022/10/11 06:36:52;;;;;;;6.63;2.97;;;5.00;99.90;;;;;;5034205;28;20200;-65
2022/10/11 06:39:18;;;;;;;3.85;2.70;;;5.00;99.90;;;;;;5058957;28;20124;-65
2022/10/11 06:41:43;;;;;;;5.43;2.50;;;5.00;99.90;;;;;;5037651;28;20033;-65
2022/10/11 06:44:11;;;;;;;6.28;3.20;;;5.00;99.90;;;;;;5046656;28;20096;-64
2022/10/11 06:46:36;;;;;;;7.43;3.20;;;5.10;99.90;;;;;;5065700;28;20033;-65
2022/10/11 06:49:02;;;;;;;7.30;3.67;;;5.10;99.90;;;;;;5031706;28;20136;-65
2022/10/11 06:51:29;;;;;;;17.15;4.20;;;5.20;99.90;;;;;;5045183;28;20084;-65
2022/10/11 06:53:56;;;;;;;17.80;3.20;;;5.30;99.90;;;;;;5034137;28;20056;-65
2022/10/11 06:56:23;;;;;;;8.43;2.80;;;5.30;99.90;;;;;;5050025;28;20072;-65
2022/10/11 06:58:52;;;;;;;5.65;2.47;;;5.20;99.90;;;;;;5051492;28;20098;-65
2022/10/11 07:01:20;;;;;;;19.80;5.53;;;5.10;99.90;;;;;;5046005;28;20141;-65
2022/10/11 07:03:47;;;;;;;19.50;4.57;;;5.10;99.90;;;;;;5030688;28;20095;-65
2022/10/11 07:06:15;;;;;;;15.63;5.80;;;5.40;99.90;;;;;;5047749;28;20131;-65
2022/10/11 07:08:40;;;;;;;16.85;5.03;;;5.40;99.90;;;;;;5043935;28;20087;-65
2022/10/11 07:11:09;;;;;;;19.70;5.78;;;5.50;99.90;;;;;;5049804;28;20033;-65
2022/10/11 07:13:36;;;;;;;17.85;6.13;;;5.50;99.90;;;;;;5032036;28;20662;-65
2022/10/11 07:16:04;;;;;;;24.75;6.82;;;5.50;99.90;;;;;;5031226;28;20076;-65
2022/10/11 07:18:30;;;;;;;29.80;8.07;;;5.60;99.90;;;;;;5046618;28;20171;-66
2022/10/11 07:20:55;;;;;;;28.38;8.88;;;5.50;99.90;;;;;;5040872;28;20551;-65
2022/10/11 07:23:22;;;;;;;25.08;8.75;;;5.60;99.90;;;;;;5038494;28;20033;-65
2022/10/11 07:25:48;;;;;;;32.75;8.77;;;5.70;99.90;;;;;;5046302;28;20486;-65
2022/10/11 07:28:13;;;;;;;26.83;7.45;;;5.80;99.90;;;;;;5053043;28;20068;-65
2022/10/11 07:30:41;;;;;;;26.02;8.48;;;5.80;99.90;;;;;;5031478;28;20040;-65
2022/10/11 07:33:07;;;;;;;24.10;7.32;;;6.00;99.90;;;;;;5033179;28;20040;-65
2022/10/11 07:35:36;;;;;;;26.02;7.78;;;6.10;99.90;;;;;;5052286;28;20095;-65
2022/10/11 07:38:03;;;;;;;25.35;7.47;;;6.10;99.90;;;;;;5052298;28;20047;-66
2022/10/11 07:40:29;;;;;;;32.72;8.30;;;6.30;99.90;;;;;;5050839;28;20045;-66
2022/10/11 07:42:56;;;;;;;22.63;7.53;;;6.60;99.90;;;;;;5048565;28;20049;-65
2022/10/11 07:45:29;;;;;;;28.23;8.05;;;6.70;99.90;;;;;;5045925;28;20037;-66
2022/10/11 07:47:55;;;;;;;;;;;6.80;99.90;;;;;;5050288;28;20079;-67
2022/10/11 07:50:20;;;;;;;27.40;7.97;;;6.90;99.90;;;;;;5050030;28;20027;-66
2022/10/11 07:52:46;;;;;;;19.98;6.88;;;6.80;99.90;;;;;;5049787;28;20033;-66
2022/10/11 07:55:12;;;;;;;23.48;7.07;;;6.90;99.90;;;;;;5050915;28;20045;-66
2022/10/11 07:57:37;;;;;;;28.70;7.10;;;7.00;99.90;;;;;;5050479;28;20037;-66
2022/10/11 08:00:04;;;;;;;22.20;6.68;;;7.10;99.90;;;;;;5045801;28;20041;-66
2022/10/11 08:02:29;;;;;;;26.00;7.70;;;7.10;99.90;;;;;;5049890;28;20061;-67
2022/10/11 08:04:55;;;;;;;25.40;7.00;;;7.30;99.90;;;;;;5050557;28;20083;-67
2022/10/11 08:07:20;;;;;;;24.25;7.20;;;7.50;99.90;;;;;;5046478;28;20041;-66
2022/10/11 08:09:46;;;;;;;29.00;6.95;;;7.60;99.90;;;;;;5046614;28;20037;-67
2022/10/11 08:12:11;;;;;;;27.30;7.07;;;7.60;99.90;;;;;;5050101;28;20037;-67
2022/10/11 08:14:38;;;;;;;32.38;6.93;;;7.90;99.90;;;;;;5038059;28;20041;-67
2022/10/11 08:17:03;;;;;;;27.00;7.47;;;7.90;99.90;;;;;;5045033;28;20071;-67
2022/10/11 08:19:29;;;;;;;32.92;7.90;;;8.00;99.90;;;;;;5033971;28;20368;-67
2022/10/11 08:21:54;;;;;;;27.58;7.18;;;8.10;99.90;;;;;;5048229;28;20037;-67
2022/10/11 08:24:20;;;;;;;30.70;6.95;;;8.20;99.90;;;;;;5034414;28;20112;-67
2022/10/11 08:26:46;;;;;;;31.58;6.50;;;8.40;99.90;;;;;;5038316;28;20123;-68
2022/10/11 08:29:13;;;;;;;25.35;6.72;;;8.60;99.90;;;;;;5048048;28;20446;-67
2022/10/11 08:31:39;;;;;;;26.17;6.40;;;8.60;99.90;;;;;;5056726;28;20098;-68
2022/10/11 08:34:05;;;;;;;30.00;6.90;;;8.70;99.90;;;;;;5048443;28;20048;-68
2022/10/11 08:36:31;;;;;;;26.77;6.28;;;8.90;99.90;;;;;;5048030;28;20044;-68
2022/10/11 08:38:57;;;;;;;28.45;7.30;;;8.90;99.90;;;;;;5050154;28;20041;-68
2022/10/11 08:41:28;;;;;;;24.42;6.38;;;9.20;99.90;;;;;;5064957;28;20041;-68
2022/10/11 08:44:13;;;;;;;32.58;6.40;;;9.30;99.90;;;;;;5034509;28;20047;-68
2022/10/11 08:46:43;;;;;;;28.88;5.93;;;9.30;99.90;;;;;;5035375;28;20130;-68
2022/10/11 08:49:11;;;;;;;35.63;5.82;;;9.50;99.90;;;;;;5042771;28;20029;-69
2022/10/11 08:51:40;;;;;;;25.67;5.88;;;9.70;99.90;;;;;;5073288;28;20056;-67
2022/10/11 08:54:29;;;;;;;23.75;4.78;;;9.80;99.90;;;;;;5049161;28;20053;-68
2022/10/11 08:56:54;;;;;;;29.17;6.25;;;10.00;99.90;;;;;;5049476;28;20041;-68
2022/10/11 08:59:30;;;;;;;24.85;5.25;;;10.00;99.90;;;;;;5046697;28;20030;-69
2022/10/11 09:02:30;;;;;;;27.20;4.70;;;10.30;99.90;;;;;;5039034;28;20036;-67
2022/10/11 09:04:55;;;;;;;28.45;4.75;;;10.40;99.90;;;;;;5042295;28;20326;-68
2022/10/11 09:07:36;;;;;;;25.02;4.30;;;10.50;99.90;;;;;;5047698;28;20047;-68
2022/10/11 09:10:10;;;;;;;27.55;5.25;;;10.50;99.90;;;;;;5043874;28;20440;-69
2022/10/11 09:12:49;;;;;;;26.52;4.72;;;10.70;99.90;;;;;;5044619;28;20095;-69
2022/10/11 09:15:36;;;;;;;33.78;4.93;;;10.80;99.90;;;;;;5037089;28;20045;-68
2022/10/11 09:18:21;;;;;;;22.25;4.80;;;10.90;99.90;;;;;;5029941;28;20037;-67
2022/10/11 09:21:07;;;;;;;21.02;4.80;;;11.20;99.90;;;;;;5035739;28;20487;-67
2022/10/11 09:23:42;;;;;;;24.38;4.07;;;11.30;99.90;;;;;;5033427;28;20510;-69
2022/10/11 09:26:29;;;;;;;25.58;4.30;;;11.40;99.90;;;;;;5040830;28;20046;-70
2022/10/11 09:29:07;;;;;;;23.80;3.90;;;11.40;99.90;;;;;;5037074;28;20451;-66
2022/10/11 09:31:32;;;;;;;21.88;4.28;;;11.60;99.90;;;;;;5067497;28;20047;-68
2022/10/11 09:34:05;;;;;;;21.70;3.08;;;11.70;99.90;;;;;;5039621;28;20033;-66
2022/10/11 09:36:53;;;;;;;19.00;3.13;;;11.80;99.90;;;;;;5037390;28;20120;-67
2022/10/11 09:39:40;;;;;;;26.80;4.43;;;11.80;99.90;;;;;;5036077;28;20041;-65
2022/10/11 09:42:08;;;;;;;19.70;3.38;;;12.00;99.90;;;;;;5037506;28;20036;-68
2022/10/11 09:44:49;;;;;;;28.17;5.22;;;12.00;99.90;;;;;;5036576;28;20048;-68
2022/10/11 09:47:21;;;;;;;27.90;3.75;;;12.10;99.90;;;;;;5034960;28;20107;-69
2022/10/11 09:49:52;;;;;;;23.73;5.47;;;12.10;99.90;;;;;;5035334;28;20033;-67
2022/10/11 09:52:20;;;;;;;29.17;6.22;;;12.20;99.90;;;;;;5035307;28;20041;-67
2022/10/11 09:54:50;;;;;;;24.20;7.97;;;12.40;99.90;;;;;;5035429;28;20407;-67
2022/10/11 09:57:25;;;;;;;17.17;5.90;;;12.60;99.90;;;;;;5035902;28;20071;-68
2022/10/11 09:59:59;;;;;;;24.55;7.88;;;12.70;99.90;;;;;;5047996;28;20322;-67
2022/10/11 10:02:29;;;;;;;22.27;5.80;;;12.80;99.90;;;;;;5048144;28;20052;-68
2022/10/11 10:04:56;;;;;;;21.85;4.57;;;12.80;99.90;;;;;;5038998;28;20045;-66
2022/10/11 10:07:22;;;;;;;20.23;4.53;;;12.80;99.90;;;;;;5040799;28;20048;-66
2022/10/11 10:09:48;;;;;;;27.30;4.93;;;12.80;99.90;;;;;;5050174;28;20096;-67
2022/10/11 10:12:20;;;;;;;29.02;7.13;;;12.90;99.90;;;;;;5051436;28;20112;-69
2022/10/11 10:15:12;;;;;;;34.03;7.03;;;13.00;99.90;;;;;;5051291;28;20049;-67
2022/10/11 10:17:46;;;;;;;18.38;7.03;;;13.10;99.90;;;;;;5067146;28;20095;-66
2022/10/11 10:20:20;;;;;;;29.95;4.88;;;13.20;99.90;;;;;;5045349;28;20036;-66
2022/10/11 10:22:46;;;;;;;20.95;4.75;;;13.30;99.90;;;;;;5052045;28;20040;-68
2022/10/11 10:25:24;;;;;;;35.00;7.40;;;13.40;99.90;;;;;;5039323;28;20041;-66
2022/10/11 10:27:58;;;;;;;29.30;8.43;;;13.40;99.90;;;;;;5051019;28;20060;-66
2022/10/11 10:30:24;;;;;;;24.02;6.85;;;13.50;99.90;;;;;;5047436;28;20044;-66
2022/10/11 10:33:04;;;;;;;27.00;4.72;;;13.60;99.90;;;;;;5050203;28;20089;-66
2022/10/11 10:35:32;;;;;;;25.90;3.95;;;13.60;99.90;;;;;;5046330;28;20034;-66
2022/10/11 10:38:10;;;;;;;26.45;4.20;;;13.70;99.90;;;;;;5036692;28;20044;-66
2022/10/11 10:40:35;;;;;;;18.38;3.00;;;13.80;99.90;;;;;;5039219;28;20033;-68
2022/10/11 10:43:01;;;;;;;23.20;6.20;;;13.80;99.90;;;;;;5037732;28;20037;-66
2022/10/11 10:45:41;;;;;;;24.67;6.05;;;13.90;99.90;;;;;;5040058;28;20098;-66
2022/10/11 10:48:35;;;;;;;18.92;5.07;;;13.90;99.90;;;;;;5042664;28;20033;-67
2022/10/11 10:51:08;;;;;;;28.45;8.73;;;14.10;99.90;;;;;;5057118;28;20056;-65
2022/10/11 10:53:44;;;;;;;20.00;3.65;;;14.10;99.90;;;;;;5039596;28;20046;-65
2022/10/11 10:56:17;;;;;;;23.17;4.30;;;14.20;99.90;;;;;;5070543;28;20072;-66
2022/10/11 10:59:16;;;;;;;20.42;3.05;;;14.20;99.90;;;;;;5070844;28;20071;-65
2022/10/11 11:01:55;;;;;;;23.33;2.85;;;14.20;99.90;;;;;;5017720;28;20440;-66
2022/10/11 11:04:32;;;;;;;20.42;2.70;;;14.30;99.90;;;;;;5037236;28;20052;-67
2022/10/11 11:07:28;;;;;;;24.60;3.15;;;14.20;99.90;;;;;;5040612;28;20126;-65
2022/10/11 11:10:01;;;;;;;19.38;2.58;;;14.20;99.90;;;;;;5036927;28;20048;-65
2022/10/11 11:12:51;;;;;;;29.30;3.35;;;14.30;99.90;;;;;;5039538;28;20444;-66
2022/10/11 11:15:30;;;;;;;22.38;3.58;;;14.20;99.90;;;;;;5034673;28;20077;-66
2022/10/11 11:18:24;;;;;;;26.92;6.90;;;14.20;99.90;;;;;;5038532;28;20049;-67
2022/10/11 11:21:18;;;;;;;18.05;3.50;;;14.30;99.90;;;;;;5066563;28;20048;-66
2022/10/11 11:24:10;;;;;;;21.83;2.90;;;14.40;99.90;;;;;;5070653;28;20124;-67
2022/10/11 11:26:55;;;;;;;23.48;3.35;;;14.40;99.90;;;;;;5034106;28;20045;-66
2022/10/11 11:29:51;;;;;;;23.42;4.88;;;14.50;99.90;;;;;;5070368;28;20074;-66
2022/10/11 11:32:22;;;;;;;15.15;3.70;;;14.60;99.90;;;;;;5038901;28;20052;-66
2022/10/11 11:35:02;;;;;;;22.53;3.07;;;14.60;99.90;;;;;;5037986;28;20430;-65
2022/10/11 11:37:33;;;;;;;26.77;3.30;;;14.60;99.90;;;;;;5039687;28;20072;-65
2022/10/11 11:40:37;;;;;;;25.38;3.50;;;14.50;99.90;;;;;;5043583;28;20119;-66
2022/10/11 11:43:32;;;;;;;14.57;3.17;;;14.50;99.90;;;;;;5036971;28;20548;-66
2022/10/11 11:46:08;;;;;;;25.88;3.47;;;14.70;99.90;;;;;;5035268;28;20064;-66
2022/10/11 11:48:34;;;;;;;24.00;4.45;;;14.80;99.90;;;;;;5039535;28;20417;-66
2022/10/11 11:51:20;;;;;;;22.60;5.70;;;14.90;99.90;;;;;;5034432;28;20088;-65
2022/10/11 11:54:16;;;;;;;21.80;2.93;;;14.90;99.90;;;;;;4998268;28;1142117;-66
2022/10/11 11:57:05;;;;;;;22.10;3.42;;;14.90;99.90;;;;;;5067374;28;20449;-66
2022/10/11 11:59:49;;;;;;;17.10;2.65;;;14.70;99.90;;;;;;5037239;28;20044;-67
2022/10/11 12:02:59;;;;;;;17.30;2.50;;;14.70;99.90;;;;;;5047987;28;20400;-66
2022/10/11 12:05:35;;;;;;;18.70;2.80;;;14.80;99.90;;;;;;5005365;28;20030;-66
2022/10/11 12:08:26;;;;;;;17.23;2.67;;;14.80;99.90;;;;;;5039670;28;20420;-67
2022/10/11 12:11:00;;;;;;;20.95;2.72;;;14.90;99.90;;;;;;5036472;28;20308;-68
2022/10/11 12:13:33;;;;;;;19.33;2.45;;;14.80;99.90;;;;;;5039819;28;20037;-67
2022/10/11 12:16:05;;;;;;;21.70;2.58;;;14.90;99.90;;;;;;5047156;28;20155;-67
2022/10/11 12:18:33;;;;;;;29.25;2.65;;;14.90;99.90;;;;;;5072347;28;20033;-66
2022/10/11 12:21:15;;;;;;;24.40;3.15;;;14.90;99.90;;;;;;5041733;28;20648;-66
2022/10/11 12:23:44;;;;;;;31.02;2.90;;;15.00;99.90;;;;;;5034631;28;20040;-66
2022/10/11 12:26:15;;;;;;;21.40;3.22;;;14.90;99.90;;;;;;5067085;28;20082;-65
2022/10/11 12:28:41;;;;;;;23.55;4.25;;;14.90;99.90;;;;;;5036352;28;20041;-66
2022/10/11 12:31:26;;;;;;;25.05;3.08;;;14.90;99.90;;;;;;5043476;28;20511;-67
2022/10/11 12:34:07;;;;;;;23.65;2.95;;;14.90;99.90;;;;;;5044948;28;20527;-66
2022/10/11 12:36:42;;;;;;;25.27;3.08;;;15.00;99.90;;;;;;5057212;28;20037;-66
2022/10/11 12:39:19;;;;;;;21.05;2.70;;;14.90;99.90;;;;;;5048872;28;20067;-67
2022/10/11 12:41:52;;;;;;;15.25;2.35;;;15.00;99.90;;;;;;5048515;28;20044;-67
2022/10/11 12:44:17;;;;;;;21.55;2.55;;;15.10;99.90;;;;;;5044223;28;20095;-65
2022/10/11 12:46:49;;;;;;;21.13;3.05;;;15.00;99.90;;;;;;5023113;28;20634;-68
2022/10/11 12:49:27;;;;;;;22.30;2.60;;;15.10;99.90;;;;;;5050660;28;20041;-67
2022/10/11 12:52:03;;;;;;;20.15;2.53;;;15.20;99.90;;;;;;5042141;28;20048;-68
2022/10/11 12:55:07;;;;;;;24.15;3.22;;;15.20;99.90;;;;;;5047189;28;20077;-67
2022/10/11 12:57:51;;;;;;;30.95;2.95;;;15.30;99.90;;;;;;5034439;28;20106;-68
2022/10/11 13:00:17;;;;;;;18.73;2.97;;;15.30;99.90;;;;;;5042903;28;20120;-70
2022/10/11 13:02:43;;;;;;;15.07;2.63;;;15.40;99.90;;;;;;5049221;28;20322;-68
2022/10/11 13:05:23;;;;;;;25.73;2.70;;;15.30;99.90;;;;;;5047804;28;20037;-67
2022/10/11 13:07:50;;;;;;;20.88;2.50;;;15.30;99.90;;;;;;5030848;28;20045;-69
2022/10/11 13:10:31;;;;;;;18.10;2.72;;;15.10;99.90;;;;;;5038823;28;20549;-66